createdAt,value
2019-05-30T00:00:45.720Z,0.00
2019-05-30T00:01:45.714Z,0.00
2019-05-30T00:02:45.699Z,0.00
2019-05-30T00:03:45.686Z,0.00
2019-05-30T00:04:45.703Z,0.00
2019-05-30T00:05:45.664Z,0.00
2019-05-30T00:06:45.650Z,0.00
2019-05-30T00:07:45.649Z,0.00
2019-05-30T00:08:45.637Z,0.00
2019-05-30T00:09:45.696Z,0.00
2019-05-30T00:10:45.603Z,0.00
2019-05-30T00:11:45.594Z,0.00
2019-05-30T00:12:45.580Z,0.00
2019-05-30T00:13:45.574Z,0.00
2019-05-30T00:14:45.577Z,0.00
2019-05-30T00:15:45.545Z,0.00
2019-05-30T00:16:45.539Z,0.00
2019-05-30T00:17:45.526Z,0.00
2019-05-30T00:18:45.517Z,0.00
2019-05-30T00:19:45.522Z,0.00
2019-05-30T00:20:45.488Z,0.00
2019-05-30T00:21:45.476Z,0.00
2019-05-30T00:22:45.464Z,0.00
2019-05-30T00:23:45.455Z,0.00
2019-05-30T00:24:45.466Z,0.00
2019-05-30T00:25:45.432Z,0.00
2019-05-30T00:26:45.422Z,0.00
2019-05-30T00:27:45.407Z,0.00
2019-05-30T00:28:45.398Z,0.00
2019-05-30T00:29:45.385Z,0.00
2019-05-30T00:30:45.393Z,0.00
2019-05-30T00:31:45.363Z,0.00
2019-05-30T00:32:45.350Z,0.00
2019-05-30T00:33:45.338Z,0.00
2019-05-30T00:34:45.327Z,0.00
2019-05-30T00:35:45.332Z,0.00
2019-05-30T00:36:45.305Z,0.00
2019-05-30T00:37:45.292Z,0.00
2019-05-30T00:38:45.295Z,0.00
2019-05-30T00:39:45.270Z,0.00
2019-05-30T00:40:45.279Z,0.00
2019-05-30T00:41:45.243Z,0.00
2019-05-30T00:42:45.234Z,0.00
2019-05-30T00:43:45.220Z,0.00
2019-05-30T00:44:45.206Z,0.00
2019-05-30T00:45:45.192Z,0.00
2019-05-30T00:46:45.202Z,0.00
2019-05-30T00:47:45.172Z,0.00
2019-05-30T00:48:45.158Z,0.00
2019-05-30T00:49:45.148Z,0.00
2019-05-30T00:50:45.134Z,0.00
2019-05-30T00:51:45.144Z,0.00
2019-05-30T00:52:45.112Z,0.00
2019-05-30T00:53:45.095Z,0.00
2019-05-30T00:54:45.085Z,0.00
2019-05-30T00:55:45.074Z,0.00
2019-05-30T00:56:45.080Z,0.00
2019-05-30T00:57:45.056Z,0.00
2019-05-30T00:58:45.041Z,0.00
2019-05-30T00:59:45.027Z,0.00
2019-05-30T01:00:45.024Z,0.00
2019-05-30T01:01:45.023Z,0.00
2019-05-30T01:02:45.004Z,0.00
2019-05-30T01:03:44.980Z,0.00
2019-05-30T01:04:44.969Z,0.00
2019-05-30T01:05:44.961Z,0.00
2019-05-30T01:06:44.962Z,0.00
2019-05-30T01:07:44.934Z,0.00
2019-05-30T01:08:44.921Z,0.00
2019-05-30T01:09:44.912Z,0.00
2019-05-30T01:10:44.896Z,0.00
2019-05-30T01:11:44.901Z,0.00
2019-05-30T01:12:44.872Z,0.00
2019-05-30T01:13:44.862Z,0.00
2019-05-30T01:14:44.847Z,0.00
2019-05-30T01:15:44.837Z,0.00
2019-05-30T01:16:44.847Z,0.00
2019-05-30T01:17:44.814Z,0.00
2019-05-30T01:18:44.803Z,0.00
2019-05-30T01:19:44.790Z,0.00
2019-05-30T01:20:44.782Z,0.00
2019-05-30T01:21:44.766Z,0.00
2019-05-30T01:22:44.775Z,0.00
2019-05-30T01:23:44.742Z,0.00
2019-05-30T01:24:44.730Z,0.00
2019-05-30T01:25:44.719Z,0.00
2019-05-30T01:26:44.708Z,0.00
2019-05-30T01:27:44.712Z,0.00
2019-05-30T01:28:44.680Z,0.00
2019-05-30T01:29:44.667Z,0.00
2019-05-30T01:30:59.113Z,0.00
2019-05-30T01:31:45.666Z,0.00
2019-05-30T01:32:44.634Z,0.00
2019-05-30T01:33:44.626Z,0.00
2019-05-30T01:34:44.609Z,0.00
2019-05-30T01:35:44.597Z,0.00
2019-05-30T01:36:44.624Z,0.00
2019-05-30T01:37:44.572Z,0.00
2019-05-30T01:38:44.562Z,0.00
2019-05-30T01:39:44.550Z,0.00
2019-05-30T01:40:44.537Z,0.00
2019-05-30T01:41:44.524Z,0.00
2019-05-30T01:42:44.535Z,0.00
2019-05-30T01:43:44.503Z,0.00
2019-05-30T01:44:44.492Z,0.00
2019-05-30T01:45:44.478Z,0.00
2019-05-30T01:46:44.469Z,0.00
2019-05-30T01:47:44.474Z,0.00
2019-05-30T01:48:44.444Z,0.00
2019-05-30T01:49:44.431Z,0.00
2019-05-30T01:50:44.421Z,0.00
2019-05-30T01:51:44.413Z,0.00
2019-05-30T01:52:44.416Z,0.00
2019-05-30T01:53:44.386Z,0.00
2019-05-30T01:54:44.373Z,0.00
2019-05-30T01:55:44.362Z,0.00
2019-05-30T01:56:44.350Z,0.00
2019-05-30T01:57:44.358Z,0.00
2019-05-30T01:58:44.328Z,0.00
2019-05-30T01:59:44.319Z,0.00
2019-05-30T02:00:44.304Z,0.00
2019-05-30T02:01:44.294Z,0.00
2019-05-30T02:02:44.306Z,0.00
2019-05-30T02:03:44.269Z,0.00
2019-05-30T02:04:44.259Z,0.00
2019-05-30T02:05:44.245Z,0.00
2019-05-30T02:06:44.234Z,0.00
2019-05-30T02:07:44.222Z,0.00
2019-05-30T02:08:44.229Z,0.00
2019-05-30T02:09:44.198Z,0.00
2019-05-30T02:10:44.191Z,0.00
2019-05-30T02:11:44.180Z,0.00
2019-05-30T02:12:44.165Z,0.00
2019-05-30T02:13:44.171Z,0.00
2019-05-30T02:14:44.141Z,0.00
2019-05-30T02:15:44.130Z,0.00
2019-05-30T02:16:44.120Z,0.00
2019-05-30T02:17:44.108Z,0.00
2019-05-30T02:18:44.113Z,0.00
2019-05-30T02:19:44.084Z,0.00
2019-05-30T02:20:44.069Z,0.00
2019-05-30T02:21:44.060Z,0.00
2019-05-30T02:22:44.059Z,0.00
2019-05-30T02:23:44.091Z,0.00
2019-05-30T02:24:44.024Z,0.00
2019-05-30T02:25:44.016Z,0.00
2019-05-30T02:26:44.001Z,0.00
2019-05-30T02:27:43.989Z,0.00
2019-05-30T02:28:43.977Z,0.00
2019-05-30T02:29:43.984Z,0.00
2019-05-30T02:30:43.954Z,0.00
2019-05-30T02:31:43.942Z,0.00
2019-05-30T02:32:43.931Z,0.00
2019-05-30T02:33:43.919Z,0.00
2019-05-30T02:34:43.922Z,0.00
2019-05-30T02:35:43.895Z,0.00
2019-05-30T02:36:43.888Z,0.00
2019-05-30T02:37:43.869Z,0.00
2019-05-30T02:38:43.858Z,0.00
2019-05-30T02:39:43.879Z,0.00
2019-05-30T02:40:43.833Z,4.00
2019-05-30T02:41:43.819Z,4.00
2019-05-30T02:42:43.810Z,4.00
2019-05-30T02:43:43.800Z,4.00
2019-05-30T02:44:43.786Z,0.00
2019-05-30T02:45:43.793Z,4.00
2019-05-30T02:46:43.765Z,4.00
2019-05-30T02:47:43.753Z,4.00
2019-05-30T02:48:58.463Z,8.00
2019-05-30T02:49:44.726Z,4.00
2019-05-30T02:50:43.752Z,8.00
2019-05-30T02:51:43.714Z,8.00
2019-05-30T02:52:43.693Z,8.00
2019-05-30T02:53:43.683Z,12.00
2019-05-30T02:54:43.669Z,12.00
2019-05-30T02:55:43.695Z,12.00
2019-05-30T02:56:43.647Z,12.00
2019-05-30T02:57:43.632Z,12.00
2019-05-30T02:58:43.624Z,16.00
2019-05-30T02:59:43.614Z,16.00
2019-05-30T03:00:43.617Z,20.00
2019-05-30T03:01:59.959Z,24.00
2019-05-30T03:02:44.577Z,24.00
2019-05-30T03:03:43.564Z,28.00
2019-05-30T03:04:43.551Z,32.00
2019-05-30T03:05:43.557Z,36.00
2019-05-30T03:06:43.530Z,36.00
2019-05-30T03:07:43.516Z,40.00
2019-05-30T03:08:43.503Z,44.00
2019-05-30T03:09:43.495Z,52.00
2019-05-30T03:10:43.501Z,52.00
2019-05-30T03:11:43.468Z,60.00
2019-05-30T03:12:43.459Z,68.00
2019-05-30T03:13:43.445Z,80.00
2019-05-30T03:14:43.441Z,92.00
2019-05-30T03:15:43.462Z,100.00
2019-05-30T03:16:43.414Z,112.00
2019-05-30T03:17:43.404Z,120.00
2019-05-30T03:18:43.387Z,124.00
2019-05-30T03:19:43.378Z,132.00
2019-05-30T03:20:43.384Z,140.00
2019-05-30T03:21:43.367Z,148.00
2019-05-30T03:22:43.342Z,160.00
2019-05-30T03:23:43.335Z,172.00
2019-05-30T03:24:43.325Z,184.00
2019-05-30T03:25:43.337Z,196.00
2019-05-30T03:26:43.370Z,204.00
2019-05-30T03:27:43.298Z,220.00
2019-05-30T03:28:43.271Z,236.00
2019-05-30T03:29:43.263Z,252.00
2019-05-30T03:30:43.289Z,272.00
2019-05-30T03:31:43.237Z,296.00
2019-05-30T03:33:44.259Z,348.00
2019-05-30T03:34:43.204Z,380.00
2019-05-30T03:35:44.378Z,408.00
2019-05-30T03:36:43.195Z,440.00
2019-05-30T03:37:43.169Z,476.00
2019-05-30T03:38:43.155Z,508.00
2019-05-30T03:39:43.143Z,540.00
2019-05-30T03:40:43.134Z,568.00
2019-05-30T03:41:43.142Z,604.00
2019-05-30T03:42:43.109Z,640.00
2019-05-30T03:43:43.097Z,680.00
2019-05-30T03:44:43.088Z,728.00
2019-05-30T03:45:43.075Z,776.00
2019-05-30T03:46:43.063Z,840.00
2019-05-30T03:47:43.067Z,908.00
2019-05-30T03:48:43.041Z,992.00
2019-05-30T03:49:43.027Z,1076.00
2019-05-30T03:50:43.017Z,1148.00
2019-05-30T03:51:43.004Z,1188.00
2019-05-30T03:52:43.011Z,1216.00
2019-05-30T03:53:42.981Z,1240.00
2019-05-30T03:54:42.972Z,1264.00
2019-05-30T03:55:42.959Z,1300.00
2019-05-30T03:56:42.947Z,1332.00
2019-05-30T03:57:42.967Z,1384.00
2019-05-30T03:58:42.924Z,1440.00
2019-05-30T03:59:42.911Z,1488.00
2019-05-30T04:00:42.908Z,1528.00
2019-05-30T04:01:42.889Z,1572.00
2019-05-30T04:02:56.410Z,1620.00
2019-05-30T04:03:43.864Z,1672.00
2019-05-30T04:04:42.854Z,1724.00
2019-05-30T04:05:42.845Z,1776.00
2019-05-30T04:06:42.828Z,1820.00
2019-05-30T04:07:42.818Z,1860.00
2019-05-30T04:08:42.824Z,1900.00
2019-05-30T04:09:42.799Z,1932.00
2019-05-30T04:10:42.784Z,1952.00
2019-05-30T04:11:42.770Z,1972.00
2019-05-30T04:12:42.758Z,1988.00
2019-05-30T04:13:42.769Z,2004.00
2019-05-30T04:14:42.736Z,2016.00
2019-05-30T04:15:42.728Z,2032.00
2019-05-30T04:16:42.712Z,2044.00
2019-05-30T04:17:42.700Z,2056.00
2019-05-30T04:18:42.710Z,2060.00
2019-05-30T04:19:42.684Z,2080.00
2019-05-30T04:20:42.665Z,2112.00
2019-05-30T04:21:42.656Z,2156.00
2019-05-30T04:22:42.642Z,2204.00
2019-05-30T04:23:42.650Z,2264.00
2019-05-30T04:24:42.621Z,2328.00
2019-05-30T04:25:42.606Z,2388.00
2019-05-30T04:26:42.597Z,2452.00
2019-05-30T04:27:42.583Z,2552.00
2019-05-30T04:28:42.591Z,2628.00
2019-05-30T04:29:42.564Z,2720.00
2019-05-30T04:30:42.552Z,2808.00
2019-05-30T04:31:42.535Z,2904.00
2019-05-30T04:32:42.530Z,3000.00
2019-05-30T04:33:42.553Z,3096.00
2019-05-30T04:34:42.504Z,3172.00
2019-05-30T04:35:42.490Z,3212.00
2019-05-30T04:36:42.480Z,3224.00
2019-05-30T04:37:42.468Z,3236.00
2019-05-30T04:38:42.463Z,3236.00
2019-05-30T04:39:42.460Z,3228.00
2019-05-30T04:40:42.430Z,3224.00
2019-05-30T04:41:42.422Z,3228.00
2019-05-30T04:42:42.409Z,3252.00
2019-05-30T04:43:42.399Z,3312.00
2019-05-30T04:44:42.408Z,3404.00
2019-05-30T04:45:42.376Z,3516.00
2019-05-30T04:46:42.362Z,3640.00
2019-05-30T04:47:42.351Z,3780.00
2019-05-30T04:48:42.338Z,3912.00
2019-05-30T04:49:42.346Z,4024.00
2019-05-30T04:50:42.317Z,4104.00
2019-05-30T04:51:42.305Z,4176.00
2019-05-30T04:52:42.294Z,4204.00
2019-05-30T04:53:42.282Z,4232.00
2019-05-30T04:54:42.309Z,4248.00
2019-05-30T04:55:42.258Z,4240.00
2019-05-30T04:56:42.254Z,4204.00
2019-05-30T04:57:42.235Z,4172.00
2019-05-30T04:58:42.943Z,4160.00
2019-05-30T04:59:42.213Z,4156.00
2019-05-30T05:00:42.217Z,4196.00
2019-05-30T05:01:42.205Z,4244.00
2019-05-30T05:02:42.181Z,4280.00
2019-05-30T05:03:46.409Z,4320.00
2019-05-30T05:04:42.152Z,4380.00
2019-05-30T05:05:42.159Z,4464.00
2019-05-30T05:06:42.144Z,4532.00
2019-05-30T05:07:42.116Z,4572.00
2019-05-30T05:08:42.121Z,4604.00
2019-05-30T05:09:42.109Z,4620.00
2019-05-30T05:10:42.103Z,4644.00
2019-05-30T05:11:42.074Z,4640.00
2019-05-30T05:12:42.059Z,4600.00
2019-05-30T05:13:42.047Z,4540.00
2019-05-30T05:14:42.036Z,4432.00
2019-05-30T05:15:42.049Z,4316.00
2019-05-30T05:16:42.012Z,4236.00
2019-05-30T05:17:42.000Z,4212.00
2019-05-30T05:18:41.991Z,4204.00
2019-05-30T05:19:41.979Z,4228.00
2019-05-30T05:20:41.965Z,4236.00
2019-05-30T05:21:41.973Z,4220.00
2019-05-30T05:22:41.942Z,4204.00
2019-05-30T05:23:41.929Z,4180.00
2019-05-30T05:24:41.917Z,4172.00
2019-05-30T05:25:41.907Z,4168.00
2019-05-30T05:26:41.913Z,4188.00
2019-05-30T05:27:41.883Z,4236.00
2019-05-30T05:28:41.872Z,4368.00
2019-05-30T05:29:41.858Z,4572.00
2019-05-30T05:30:41.854Z,4768.00
2019-05-30T05:31:41.855Z,4988.00
2019-05-30T05:32:41.824Z,5236.00
2019-05-30T05:33:55.764Z,5480.00
2019-05-30T05:34:42.800Z,5664.00
2019-05-30T05:35:41.790Z,5856.00
2019-05-30T05:36:41.796Z,6024.00
2019-05-30T05:37:41.766Z,6256.00
2019-05-30T05:38:41.751Z,6576.00
2019-05-30T05:39:41.741Z,6808.00
2019-05-30T05:40:41.730Z,6832.00
2019-05-30T05:41:41.735Z,6716.00
2019-05-30T05:42:41.705Z,6596.00
2019-05-30T05:43:41.730Z,6476.00
2019-05-30T05:44:41.682Z,6376.00
2019-05-30T05:45:41.668Z,6316.00
2019-05-30T05:46:41.676Z,6228.00
2019-05-30T05:47:41.645Z,6168.00
2019-05-30T05:48:41.634Z,6152.00
2019-05-30T05:49:41.622Z,6168.00
2019-05-30T05:50:41.608Z,6116.00
2019-05-30T05:51:41.639Z,5964.00
2019-05-30T05:52:41.585Z,5916.00
2019-05-30T05:53:41.576Z,5956.00
2019-05-30T05:54:41.561Z,6100.00
2019-05-30T05:55:41.552Z,6304.00
2019-05-30T05:56:41.558Z,6500.00
2019-05-30T05:57:41.525Z,6764.00
2019-05-30T05:58:41.512Z,7112.00
2019-05-30T05:59:41.502Z,7540.00
2019-05-30T06:00:41.491Z,7884.00
2019-05-30T06:01:41.486Z,8132.00
2019-05-30T06:02:41.484Z,8368.00
2019-05-30T06:03:41.456Z,8516.00
2019-05-30T06:04:41.451Z,8604.00
2019-05-30T06:05:52.616Z,8736.00
2019-05-30T06:06:42.417Z,8936.00
2019-05-30T06:07:41.425Z,9248.00
2019-05-30T06:08:41.397Z,9608.00
2019-05-30T06:09:41.382Z,10008.00
2019-05-30T06:10:41.373Z,10388.00
2019-05-30T06:11:41.388Z,10284.00
2019-05-30T06:12:41.349Z,10372.00
2019-05-30T06:13:41.344Z,10464.00
2019-05-30T06:14:41.324Z,10780.00
2019-05-30T06:15:41.314Z,10668.00
2019-05-30T06:16:41.302Z,10588.00
2019-05-30T06:17:41.310Z,10436.00
2019-05-30T06:18:41.277Z,10204.00
2019-05-30T06:19:46.431Z,9480.00
2019-05-30T06:20:42.256Z,9048.00
2019-05-30T06:21:53.681Z,8912.00
2019-05-30T06:22:42.248Z,8892.00
2019-05-30T06:23:41.226Z,8880.00
2019-05-30T06:24:41.211Z,8792.00
2019-05-30T06:25:41.201Z,8716.00
2019-05-30T06:26:41.187Z,8528.00
2019-05-30T06:27:41.192Z,8180.00
2019-05-30T06:28:41.161Z,7908.00
2019-05-30T06:29:41.150Z,7740.00
2019-05-30T06:30:41.141Z,7864.00
2019-05-30T06:31:41.127Z,7824.00
2019-05-30T06:32:41.162Z,7696.00
2019-05-30T06:33:41.108Z,7660.00
2019-05-30T06:34:41.093Z,7452.00
2019-05-30T06:35:41.169Z,7496.00
2019-05-30T06:36:41.072Z,7560.00
2019-05-30T06:37:41.061Z,7540.00
2019-05-30T06:38:41.065Z,7132.00
2019-05-30T06:39:41.037Z,7228.00
2019-05-30T06:40:41.024Z,7044.00
2019-05-30T06:41:41.013Z,7452.00
2019-05-30T06:42:41.004Z,8144.00
2019-05-30T06:43:41.022Z,8460.00
2019-05-30T06:44:40.978Z,8592.00
2019-05-30T06:45:40.970Z,8384.00
2019-05-30T06:46:40.955Z,8492.00
2019-05-30T06:47:40.945Z,8376.00
2019-05-30T06:48:40.961Z,8184.00
2019-05-30T06:49:40.922Z,7808.00
2019-05-30T06:50:40.910Z,8400.00
2019-05-30T06:51:40.899Z,8556.00
2019-05-30T06:52:40.885Z,8692.00
2019-05-30T06:53:40.894Z,8424.00
2019-05-30T06:54:40.861Z,8428.00
2019-05-30T06:55:40.858Z,8080.00
2019-05-30T06:56:44.450Z,7836.00
2019-05-30T06:57:40.840Z,7372.00
2019-05-30T06:58:48.434Z,7512.00
2019-05-30T06:59:41.803Z,7848.00
2019-05-30T07:00:40.796Z,8732.00
2019-05-30T07:01:40.781Z,9112.00
2019-05-30T07:02:40.797Z,9204.00
2019-05-30T07:03:40.957Z,9948.00
2019-05-30T07:04:51.751Z,10524.00
2019-05-30T07:05:42.218Z,11080.00
2019-05-30T07:06:41.071Z,11928.00
2019-05-30T07:07:40.918Z,12528.00
2019-05-30T07:08:40.718Z,12720.00
2019-05-30T07:09:40.687Z,12960.00
2019-05-30T07:10:40.680Z,12808.00
2019-05-30T07:11:40.666Z,12844.00
2019-05-30T07:12:40.654Z,14204.00
2019-05-30T07:13:40.664Z,15228.00
2019-05-30T07:14:40.630Z,15508.00
2019-05-30T07:15:40.618Z,15196.00
2019-05-30T07:16:40.605Z,16320.00
2019-05-30T07:17:40.597Z,15168.00
2019-05-30T07:18:40.601Z,13952.00
2019-05-30T07:19:40.570Z,15600.00
2019-05-30T07:20:40.559Z,16352.00
2019-05-30T07:21:40.551Z,17952.00
2019-05-30T07:22:40.536Z,18240.00
2019-05-30T07:23:40.578Z,17020.00
2019-05-30T07:24:40.517Z,16548.00
2019-05-30T07:25:40.501Z,15832.00
2019-05-30T07:26:40.490Z,15524.00
2019-05-30T07:27:40.494Z,15696.00
2019-05-30T07:28:40.488Z,15032.00
2019-05-30T07:29:40.456Z,14372.00
2019-05-30T07:30:40.445Z,13320.00
2019-05-30T07:31:40.432Z,13124.00
2019-05-30T07:32:40.420Z,13064.00
2019-05-30T07:33:40.432Z,13280.00
2019-05-30T07:34:40.398Z,13012.00
2019-05-30T07:35:40.387Z,13040.00
2019-05-30T07:36:40.373Z,13028.00
2019-05-30T07:37:40.365Z,13072.00
2019-05-30T07:38:40.397Z,12480.00
2019-05-30T07:39:40.340Z,12332.00
2019-05-30T07:40:40.331Z,12472.00
2019-05-30T07:41:40.318Z,13592.00
2019-05-30T07:42:40.303Z,15176.00
2019-05-30T07:43:40.292Z,15164.00
2019-05-30T07:44:40.299Z,13896.00
2019-05-30T07:45:40.316Z,14208.00
2019-05-30T07:46:40.257Z,13544.00
2019-05-30T07:47:40.266Z,12356.00
2019-05-30T07:48:40.242Z,11600.00
2019-05-30T07:49:40.246Z,11652.00
2019-05-30T07:50:40.218Z,12544.00
2019-05-30T07:51:40.202Z,13800.00
2019-05-30T07:52:40.188Z,13780.00
2019-05-30T07:53:40.184Z,13848.00
2019-05-30T07:54:40.183Z,13836.00
2019-05-30T07:55:40.155Z,13332.00
2019-05-30T07:56:40.142Z,13580.00
2019-05-30T07:57:41.553Z,14016.00
2019-05-30T07:58:40.118Z,13332.00
2019-05-30T07:59:40.130Z,12636.00
2019-05-30T08:00:40.095Z,12620.00
2019-05-30T08:01:40.093Z,13012.00
2019-05-30T08:02:40.077Z,13068.00
2019-05-30T08:03:40.061Z,12192.00
2019-05-30T08:04:40.051Z,11508.00
2019-05-30T08:05:40.054Z,10976.00
2019-05-30T08:06:40.029Z,10856.00
2019-05-30T08:07:40.015Z,10888.00
2019-05-30T08:08:40.020Z,11280.00
2019-05-30T08:09:39.992Z,11532.00
2019-05-30T08:10:40.001Z,11192.00
2019-05-30T08:11:39.966Z,12128.00
2019-05-30T08:12:39.993Z,12480.00
2019-05-30T08:13:39.945Z,12400.00
2019-05-30T08:14:39.941Z,13188.00
2019-05-30T08:15:44.028Z,15056.00
2019-05-30T08:16:39.910Z,15204.00
2019-05-30T08:17:39.899Z,15432.00
2019-05-30T08:18:39.888Z,18272.00
2019-05-30T08:19:39.878Z,19744.00
2019-05-30T08:20:39.884Z,18048.00
2019-05-30T08:21:39.853Z,18656.00
2019-05-30T08:22:39.841Z,21664.00
2019-05-30T08:23:39.829Z,22368.00
2019-05-30T08:24:39.817Z,21760.00
2019-05-30T08:25:39.820Z,20096.00
2019-05-30T08:26:39.791Z,17760.00
2019-05-30T08:27:39.781Z,19328.00
2019-05-30T08:28:42.569Z,21568.00
2019-05-30T08:29:39.761Z,21440.00
2019-05-30T08:30:39.762Z,21312.00
2019-05-30T08:31:39.732Z,20576.00
2019-05-30T08:32:39.724Z,20768.00
2019-05-30T08:33:39.805Z,20800.00
2019-05-30T08:34:39.705Z,19968.00
2019-05-30T08:35:49.207Z,21056.00
2019-05-30T08:36:40.672Z,19808.00
2019-05-30T08:37:39.665Z,17472.00
2019-05-30T08:38:39.672Z,16228.00
2019-05-30T08:39:39.637Z,15960.00
2019-05-30T08:40:39.628Z,16008.00
2019-05-30T08:41:39.632Z,16460.00
2019-05-30T08:42:40.373Z,16900.00
2019-05-30T08:43:39.738Z,16028.00
2019-05-30T08:44:40.155Z,14916.00
2019-05-30T08:45:40.011Z,13628.00
2019-05-30T08:46:39.987Z,12756.00
2019-05-30T08:47:40.663Z,11688.00
2019-05-30T08:48:40.373Z,11528.00
2019-05-30T08:49:40.400Z,11924.00
2019-05-30T08:50:43.166Z,11884.00
2019-05-30T08:51:40.573Z,11280.00
2019-05-30T08:52:40.980Z,10480.00
2019-05-30T08:53:40.663Z,11272.00
2019-05-30T08:54:40.494Z,13652.00
2019-05-30T08:55:40.581Z,15608.00
2019-05-30T08:56:40.631Z,15988.00
2019-05-30T08:57:40.730Z,16532.00
2019-05-30T08:58:39.412Z,16292.00
2019-05-30T08:59:40.646Z,15144.00
2019-05-30T09:00:39.386Z,16180.00
2019-05-30T09:01:40.465Z,22496.00
2019-05-30T09:02:39.364Z,26624.00
2019-05-30T09:03:40.104Z,27424.00
2019-05-30T09:04:39.828Z,29056.00
2019-05-30T09:05:56.509Z,26528.00
2019-05-30T09:06:40.332Z,23264.00
2019-05-30T09:07:40.210Z,20928.00
2019-05-30T09:08:40.065Z,21536.00
2019-05-30T09:09:40.198Z,23584.00
2019-05-30T09:10:40.703Z,24288.00
2019-05-30T09:11:40.494Z,24800.00
2019-05-30T09:12:42.069Z,23584.00
2019-05-30T09:13:40.318Z,22912.00
2019-05-30T09:14:41.039Z,23424.00
2019-05-30T09:15:39.218Z,23584.00
2019-05-30T09:16:39.221Z,23328.00
2019-05-30T09:17:40.499Z,24576.00
2019-05-30T09:18:40.286Z,25120.00
2019-05-30T09:19:39.795Z,26240.00
2019-05-30T09:20:39.813Z,25792.00
2019-05-30T09:21:39.903Z,24704.00
2019-05-30T09:22:39.791Z,23392.00
2019-05-30T09:23:40.501Z,21408.00
2019-05-30T09:24:40.303Z,20096.00
2019-05-30T09:25:40.017Z,20448.00
2019-05-30T09:26:43.775Z,21344.00
2019-05-30T09:27:40.790Z,20192.00
2019-05-30T09:28:40.585Z,18720.00
2019-05-30T09:29:39.793Z,19488.00
2019-05-30T09:30:39.858Z,19008.00
2019-05-30T09:31:39.982Z,17568.00
2019-05-30T09:32:39.934Z,17440.00
2019-05-30T09:33:39.827Z,19008.00
2019-05-30T09:34:40.377Z,19648.00
2019-05-30T09:35:40.192Z,19904.00
2019-05-30T09:36:39.836Z,19648.00
2019-05-30T09:37:40.249Z,18880.00
2019-05-30T09:38:40.262Z,16736.00
2019-05-30T09:39:40.035Z,15004.00
2019-05-30T09:40:39.355Z,14056.00
2019-05-30T09:41:39.367Z,15800.00
2019-05-30T09:42:40.622Z,17104.00
2019-05-30T09:43:39.860Z,16984.00
2019-05-30T09:44:40.460Z,16180.00
2019-05-30T09:45:39.604Z,15712.00
2019-05-30T09:46:40.833Z,15528.00
2019-05-30T09:47:41.238Z,15648.00
2019-05-30T09:48:38.827Z,15036.00
2019-05-30T09:49:38.816Z,14152.00
2019-05-30T09:50:38.806Z,13452.00
2019-05-30T09:51:38.812Z,13584.00
2019-05-30T09:52:38.782Z,14028.00
2019-05-30T09:53:38.774Z,14752.00
2019-05-30T09:54:38.768Z,16124.00
2019-05-30T09:55:38.747Z,19200.00
2019-05-30T09:56:38.756Z,20352.00
2019-05-30T09:57:38.731Z,22688.00
2019-05-30T09:58:38.714Z,25920.00
2019-05-30T09:59:38.701Z,27968.00
2019-05-30T10:00:38.692Z,28032.00
2019-05-30T10:01:38.730Z,30592.00
2019-05-30T10:02:38.664Z,33696.00
2019-05-30T10:03:38.656Z,34720.00
2019-05-30T10:04:38.642Z,31840.00
2019-05-30T10:05:38.632Z,31744.00
2019-05-30T10:06:38.638Z,32032.00
2019-05-30T10:07:38.609Z,37792.00
2019-05-30T10:08:38.597Z,35648.00
2019-05-30T10:09:38.584Z,35136.00
2019-05-30T10:10:38.572Z,33568.00
2019-05-30T10:11:38.579Z,31872.00
2019-05-30T10:12:38.548Z,32832.00
2019-05-30T10:13:38.541Z,34464.00
2019-05-30T10:14:38.672Z,32992.00
2019-05-30T10:15:38.538Z,33120.00
2019-05-30T10:16:38.520Z,32544.00
2019-05-30T10:17:38.489Z,32704.00
2019-05-30T10:18:38.479Z,32320.00
2019-05-30T10:19:38.468Z,29696.00
2019-05-30T10:20:38.456Z,26368.00
2019-05-30T10:21:38.468Z,24256.00
2019-05-30T10:22:38.433Z,22208.00
2019-05-30T10:23:38.420Z,21760.00
2019-05-30T10:24:38.408Z,20640.00
2019-05-30T10:25:38.396Z,21408.00
2019-05-30T10:26:38.383Z,23072.00
2019-05-30T10:27:38.394Z,22368.00
2019-05-30T10:28:38.361Z,21408.00
2019-05-30T10:29:38.347Z,21472.00
2019-05-30T10:30:38.340Z,21888.00
2019-05-30T10:31:38.325Z,21088.00
2019-05-30T10:32:38.333Z,19488.00
2019-05-30T10:33:38.301Z,16968.00
2019-05-30T10:34:38.298Z,15980.00
2019-05-30T10:35:38.279Z,16028.00
2019-05-30T10:36:44.311Z,16084.00
2019-05-30T10:37:39.259Z,14460.00
2019-05-30T10:38:38.245Z,12452.00
2019-05-30T10:39:38.232Z,10724.00
2019-05-30T10:40:38.222Z,10488.00
2019-05-30T10:41:38.206Z,11280.00
2019-05-30T10:42:38.228Z,11360.00
2019-05-30T10:43:38.184Z,12184.00
2019-05-30T10:44:38.175Z,12972.00
2019-05-30T10:45:38.793Z,12924.00
2019-05-30T10:46:38.150Z,12768.00
2019-05-30T10:47:38.156Z,13296.00
2019-05-30T10:48:38.133Z,15072.00
2019-05-30T10:49:38.115Z,16008.00
2019-05-30T10:50:38.102Z,16752.00
2019-05-30T10:51:38.090Z,17504.00
2019-05-30T10:52:38.098Z,16704.00
2019-05-30T10:53:38.072Z,16376.00
2019-05-30T10:54:38.058Z,15408.00
2019-05-30T10:55:38.045Z,14892.00
2019-05-30T10:56:38.037Z,14640.00
2019-05-30T10:57:38.045Z,15404.00
2019-05-30T10:58:38.011Z,14968.00
2019-05-30T10:59:38.001Z,9848.00
2019-05-30T11:00:37.987Z,9848.00
2019-05-30T11:01:37.977Z,14208.00
2019-05-30T11:02:37.985Z,14236.00
2019-05-30T11:03:37.955Z,14400.00
2019-05-30T11:04:37.942Z,14580.00
2019-05-30T11:05:37.930Z,16260.00
2019-05-30T11:06:37.920Z,17440.00
2019-05-30T11:07:52.804Z,17952.00
2019-05-30T11:08:38.917Z,16844.00
2019-05-30T11:09:37.886Z,16692.00
2019-05-30T11:10:37.872Z,15016.00
2019-05-30T11:11:37.864Z,12852.00
2019-05-30T11:12:37.850Z,11564.00
2019-05-30T11:13:37.856Z,11448.00
2019-05-30T11:14:37.922Z,12064.00
2019-05-30T11:15:37.817Z,12500.00
2019-05-30T11:16:37.802Z,12300.00
2019-05-30T11:17:37.791Z,12536.00
2019-05-30T11:18:37.799Z,13128.00
2019-05-30T11:19:37.770Z,13500.00
2019-05-30T11:20:37.755Z,12520.00
2019-05-30T11:21:37.744Z,13628.00
2019-05-30T11:22:37.733Z,16364.00
2019-05-30T11:23:37.737Z,16668.00
2019-05-30T11:24:37.755Z,16488.00
2019-05-30T11:25:37.694Z,15444.00
2019-05-30T11:26:37.684Z,13320.00
2019-05-30T11:27:37.670Z,12796.00
2019-05-30T11:28:37.679Z,13356.00
2019-05-30T11:29:37.650Z,13448.00
2019-05-30T11:30:37.638Z,14048.00
2019-05-30T11:31:37.625Z,14848.00
2019-05-30T11:32:37.618Z,14624.00
2019-05-30T11:33:37.624Z,13980.00
2019-05-30T11:34:37.587Z,14064.00
2019-05-30T11:35:37.666Z,13904.00
2019-05-30T11:36:37.566Z,13296.00
2019-05-30T11:37:37.558Z,12524.00
2019-05-30T11:38:37.542Z,12524.00
2019-05-30T11:39:37.549Z,13636.00
2019-05-30T11:40:37.516Z,15124.00
2019-05-30T11:41:37.509Z,15080.00
2019-05-30T11:42:37.493Z,15984.00
2019-05-30T11:43:37.482Z,16596.00
2019-05-30T11:44:37.490Z,16532.00
2019-05-30T11:45:37.456Z,15360.00
2019-05-30T11:46:37.445Z,13804.00
2019-05-30T11:47:37.433Z,13148.00
2019-05-30T11:48:37.484Z,13812.00
2019-05-30T11:49:37.430Z,13668.00
2019-05-30T11:50:37.397Z,13420.00
2019-05-30T11:51:37.385Z,13520.00
2019-05-30T11:52:37.380Z,13132.00
2019-05-30T11:53:37.360Z,12660.00
2019-05-30T11:54:37.415Z,12796.00
2019-05-30T11:55:37.339Z,13212.00
2019-05-30T11:56:37.328Z,14928.00
2019-05-30T11:57:37.316Z,15132.00
2019-05-30T11:58:37.303Z,14040.00
2019-05-30T11:59:37.312Z,12588.00
2019-05-30T12:00:37.285Z,12464.00
2019-05-30T12:01:37.268Z,12700.00
2019-05-30T12:02:37.264Z,12796.00
2019-05-30T12:03:37.247Z,13052.00
2019-05-30T12:04:37.249Z,13508.00
2019-05-30T12:05:37.235Z,13692.00
2019-05-30T12:06:37.209Z,14048.00
2019-05-30T12:07:37.223Z,14548.00
2019-05-30T12:08:37.187Z,15740.00
2019-05-30T12:09:37.202Z,16316.00
2019-05-30T12:10:37.161Z,16228.00
2019-05-30T12:11:37.151Z,17376.00
2019-05-30T12:12:37.140Z,20416.00
2019-05-30T12:13:37.128Z,22656.00
2019-05-30T12:14:37.120Z,25504.00
2019-05-30T12:15:37.123Z,25824.00